Погода Селефунна 2 недели

Кгатленг, Ботсвана

13 - 25 июля
  • 13июля
    Сегодня
    +7°
    +29°
    Ясно и безоблачно
    ВремяПогодаТемператураВлажностьДавлениеВетер, м/сВероятность осадков
    02:00Ясно и безоблачно+9°C25 %690 мм2.7 м/с0 %
    05:00Ясно и безоблачно+7°C27 %689 мм0.0 м/с0 %
    08:00Ясно и безоблачно+12°C22 %691 мм0.0 м/с0 %
    11:00Ясно и безоблачно+26°C7 %694 мм1.4 м/с0 %
    14:00Ясно и безоблачно+29°C6 %693 мм2.6 м/с0 %
    17:00Ясно и безоблачно+27°C7 %692 мм0.8 м/с0 %
    20:00Ясно и безоблачно+16°C12 %691 мм0.6 м/с0 %
    23:00Ясно и безоблачно+15°C13 %691 мм2.4 м/с0 %
  • 14июля
    Воскресенье
    +9°
    +31°
    Ясно и безоблачно
    ВремяПогодаТемператураВлажностьДавлениеВетер, м/сВероятность осадков
    02:00Ясно и безоблачно+11°C26 %690 мм2.1 м/с0 %
    05:00Ясно и безоблачно+8°C26 %688 мм0.0 м/с0 %
    08:00Ясно и безоблачно+13°C23 %691 мм0.0 м/с0 %
    11:00Ясно и безоблачно+28°C10 %695 мм1.4 м/с0 %
    14:00Ясно и безоблачно+30°C7 %693 мм2.8 м/с0 %
    17:00Ясно и безоблачно+28°C6 %692 мм1.2 м/с0 %
    20:00Ясно и безоблачно+17°C11 %691 мм0.6 м/с0 %
    23:00Ясно и безоблачно+14°C15 %691 мм1.9 м/с0 %
  • 15июля
    Понедельник
    +7°
    +29°
    Ясно и безоблачно
    ВремяПогодаТемператураВлажностьДавлениеВетер, м/сВероятность осадков
    02:00Ясно и безоблачно+10°C20 %690 мм1.9 м/с0 %
    05:00Ясно и безоблачно+10°C24 %690 мм0.4 м/с0 %
    08:00Ясно и безоблачно+14°C20 %692 мм1.0 м/с0 %
    11:00Ясно и безоблачно+27°C11 %695 мм2.1 м/с0 %
    14:00Ясно и безоблачно+29°C8 %693 мм2.0 м/с0 %
    17:00Ясно и безоблачно+28°C9 %692 мм0.8 м/с0 %
    20:00Ясно и безоблачно+16°C15 %691 мм0.9 м/с0 %
    23:00Ясно и безоблачно+13°C34 %691 мм2.7 м/с0 %
  • 16июля
    Вторник
    +9°
    +28°
    Ясно и безоблачно
    ВремяПогодаТемператураВлажностьДавлениеВетер, м/сВероятность осадков
    02:00Ясно и безоблачно+10°C68 %691 мм2.3 м/с0 %
    05:00Ясно и безоблачно+8°C85 %690 мм0.5 м/с0 %
    08:00Ясно и безоблачно+12°C78 %693 мм1.3 м/с2 %
    11:00Ясно и безоблачно+22°C37 %694 мм2.5 м/с0 %
    14:00Ясно и безоблачно+26°C18 %692 мм2.6 м/с0 %
    17:00Ясно и безоблачно+27°C16 %692 мм1.2 м/с0 %
    20:00Ясно и безоблачно+16°C29 %691 мм1.3 м/с0 %
    23:00Ясно и безоблачно+14°C44 %691 мм2.7 м/с0 %
Мы используем cookies
Соглашаюсь